createdAt,value
2018-10-07T00:00:07.191Z,6.10
2018-10-07T00:02:36.444Z,5.70
2018-10-07T00:05:05.691Z,5.83
2018-10-07T00:07:34.930Z,6.10
2018-10-07T00:10:04.190Z,5.97
2018-10-07T00:12:33.426Z,5.80
2018-10-07T00:15:02.685Z,5.83
2018-10-07T00:17:31.926Z,5.77
2018-10-07T00:20:01.156Z,5.20
2018-10-07T00:22:30.393Z,5.30
2018-10-07T00:24:59.647Z,5.23
2018-10-07T00:27:28.894Z,5.67
2018-10-07T00:29:58.153Z,5.37
2018-10-07T00:32:27.383Z,5.40
2018-10-07T00:34:56.644Z,5.50
2018-10-07T00:37:25.894Z,5.57
2018-10-07T00:39:55.350Z,4.93
2018-10-07T00:42:24.591Z,5.10
2018-10-07T00:44:53.836Z,4.90
2018-10-07T00:47:23.166Z,5.03
2018-10-07T00:49:52.391Z,4.87
2018-10-07T00:52:21.630Z,5.17
2018-10-07T00:54:50.855Z,5.43
2018-10-07T00:57:20.087Z,5.17
2018-10-07T00:59:49.311Z,5.47
2018-10-07T01:02:18.570Z,5.13
2018-10-07T01:04:47.796Z,5.90
2018-10-07T01:07:17.039Z,5.27
2018-10-07T01:09:46.272Z,4.77
2018-10-07T01:12:15.485Z,5.03
2018-10-07T01:14:44.742Z,5.30
2018-10-07T01:17:13.976Z,4.77
2018-10-07T01:19:43.199Z,5.03
2018-10-07T01:22:12.435Z,5.33
2018-10-07T01:24:41.672Z,6.00
2018-10-07T01:27:10.918Z,6.13
2018-10-07T01:29:40.152Z,5.70
2018-10-07T01:32:09.377Z,5.00
2018-10-07T01:34:38.616Z,5.87
2018-10-07T01:37:07.839Z,5.57
2018-10-07T01:39:37.063Z,5.50
2018-10-07T01:42:06.314Z,4.87
2018-10-07T01:44:35.540Z,4.73
2018-10-07T01:47:04.787Z,4.23
2018-10-07T01:49:33.984Z,4.73
2018-10-07T01:52:03.219Z,4.50
2018-10-07T01:54:32.442Z,4.67
2018-10-07T01:57:01.681Z,4.93
2018-10-07T01:59:30.938Z,4.53
2018-10-07T02:02:00.148Z,4.40
2018-10-07T02:04:29.373Z,4.70
2018-10-07T02:06:58.595Z,4.87
2018-10-07T02:09:27.809Z,5.00
2018-10-07T02:11:57.042Z,4.93
2018-10-07T02:14:26.267Z,5.40
2018-10-07T02:16:55.492Z,5.13
2018-10-07T02:19:24.703Z,5.03
2018-10-07T02:21:53.942Z,4.57
2018-10-07T02:24:23.153Z,4.80
2018-10-07T02:26:52.434Z,4.80
2018-10-07T02:29:21.672Z,4.50
2018-10-07T02:31:50.901Z,4.73
2018-10-07T02:34:20.109Z,4.40
2018-10-07T02:36:49.329Z,4.73
2018-10-07T02:39:18.579Z,4.33
2018-10-07T02:41:47.835Z,4.13
2018-10-07T02:44:17.079Z,4.00
2018-10-07T02:46:46.310Z,4.27
2018-10-07T02:49:15.528Z,4.20
2018-10-07T02:51:44.759Z,4.37
2018-10-07T02:54:13.981Z,4.30
2018-10-07T02:56:43.401Z,4.20
2018-10-07T02:59:14.186Z,4.37
2018-10-07T03:01:43.413Z,4.63
2018-10-07T03:04:12.738Z,4.90
2018-10-07T03:06:41.987Z,4.10
2018-10-07T03:09:11.568Z,4.10
2018-10-07T03:11:40.906Z,3.63
2018-10-07T03:14:10.132Z,4.20
2018-10-07T03:16:39.365Z,4.33
2018-10-07T03:19:08.606Z,3.90
2018-10-07T03:21:37.841Z,4.07
2018-10-07T03:24:07.123Z,4.20
2018-10-07T03:26:36.351Z,4.10
2018-10-07T03:29:05.564Z,4.30
2018-10-07T03:31:34.808Z,4.33
2018-10-07T03:34:04.060Z,4.50
2018-10-07T03:36:33.286Z,4.53
2018-10-07T03:39:02.562Z,4.37
2018-10-07T03:41:31.853Z,4.97
2018-10-07T03:44:01.087Z,4.23
2018-10-07T03:46:30.313Z,4.30
2018-10-07T03:48:59.544Z,4.50
2018-10-07T03:51:28.755Z,4.27
2018-10-07T03:53:57.972Z,4.40
2018-10-07T03:56:27.210Z,4.50
2018-10-07T03:58:56.436Z,4.33
2018-10-07T04:01:25.666Z,3.97
2018-10-07T04:03:54.895Z,4.33
2018-10-07T04:06:24.137Z,4.40
2018-10-07T04:08:53.345Z,4.30
2018-10-07T04:11:22.756Z,4.27
2018-10-07T04:13:52.129Z,4.80
2018-10-07T04:16:21.394Z,3.90
2018-10-07T04:18:51.996Z,4.23
2018-10-07T04:21:21.971Z,4.03
2018-10-07T04:23:52.863Z,4.43
2018-10-07T04:26:22.097Z,4.63
2018-10-07T04:28:51.318Z,4.90
2018-10-07T04:31:20.549Z,4.50
2018-10-07T04:33:49.781Z,4.63
2018-10-07T04:36:20.033Z,4.43
2018-10-07T04:38:49.239Z,4.53
2018-10-07T04:41:18.486Z,4.70
2018-10-07T04:43:47.751Z,4.33
2018-10-07T04:46:17.046Z,4.60
2018-10-07T04:48:46.261Z,4.33
2018-10-07T04:51:15.520Z,3.93
2018-10-07T04:53:44.765Z,4.40
2018-10-07T04:56:14.022Z,4.20
2018-10-07T04:58:43.255Z,4.30
2018-10-07T05:01:12.592Z,4.50
2018-10-07T05:03:42.031Z,4.40
2018-10-07T05:06:11.272Z,4.70
2018-10-07T05:08:40.555Z,4.40
2018-10-07T05:11:10.135Z,4.50
2018-10-07T05:13:49.091Z,4.70
2018-10-07T05:16:51.283Z,4.60
2018-10-07T05:19:20.644Z,4.30
2018-10-07T05:21:49.935Z,4.17
2018-10-07T05:24:19.524Z,4.27
2018-10-07T05:26:48.881Z,4.60
2018-10-07T05:29:18.118Z,4.23
2018-10-07T05:31:47.344Z,4.80
2018-10-07T05:34:16.585Z,4.53
2018-10-07T05:36:45.922Z,4.67
2018-10-07T05:39:15.150Z,5.03
2018-10-07T05:41:44.401Z,4.10
2018-10-07T05:44:13.630Z,4.50
2018-10-07T05:46:42.869Z,4.40
2018-10-07T05:49:12.092Z,4.17
2018-10-07T05:51:41.388Z,3.90
2018-10-07T05:54:10.595Z,4.07
2018-10-07T05:56:39.815Z,3.90
2018-10-07T05:59:09.065Z,3.40
2018-10-07T06:01:43.380Z,4.57
2018-10-07T06:04:51.953Z,4.30
2018-10-07T06:07:21.359Z,4.40
2018-10-07T06:09:50.592Z,4.63
2018-10-07T06:12:19.824Z,4.60
2018-10-07T06:15:05.948Z,4.67
2018-10-07T06:17:35.180Z,4.50
2018-10-07T06:20:04.439Z,4.60
2018-10-07T06:22:33.656Z,4.47
2018-10-07T06:25:02.882Z,4.10
2018-10-07T06:27:32.122Z,4.73
2018-10-07T06:30:01.415Z,4.37
2018-10-07T06:32:30.588Z,4.53
2018-10-07T06:34:59.816Z,4.27
2018-10-07T06:37:29.055Z,4.73
2018-10-07T06:39:58.328Z,4.57
2018-10-07T06:42:27.563Z,4.07
2018-10-07T06:44:56.784Z,4.80
2018-10-07T06:47:26.018Z,4.63
2018-10-07T06:49:55.244Z,4.37
2018-10-07T06:52:24.468Z,3.93
2018-10-07T06:54:53.694Z,4.97
2018-10-07T06:57:22.940Z,4.70
2018-10-07T06:59:52.152Z,4.53
2018-10-07T07:02:21.404Z,4.20
2018-10-07T07:04:50.642Z,4.57
2018-10-07T07:07:19.863Z,4.80
2018-10-07T07:09:49.092Z,4.53
2018-10-07T07:12:18.306Z,4.70
2018-10-07T07:14:47.544Z,4.63
2018-10-07T07:17:16.781Z,4.90
2018-10-07T07:19:46.067Z,4.70
2018-10-07T07:22:15.308Z,5.33
2018-10-07T07:24:44.530Z,5.50
2018-10-07T07:27:13.753Z,4.60
2018-10-07T07:29:42.980Z,4.97
2018-10-07T07:32:12.212Z,5.23
2018-10-07T07:34:41.451Z,5.23
2018-10-07T07:37:10.658Z,6.00
2018-10-07T07:39:39.891Z,4.77
2018-10-07T07:42:09.179Z,4.87
2018-10-07T07:44:38.347Z,5.03
2018-10-07T07:47:07.540Z,4.67
2018-10-07T07:49:36.753Z,4.83
2018-10-07T07:52:05.942Z,4.90
2018-10-07T07:54:35.202Z,4.67
2018-10-07T07:57:04.352Z,5.60
2018-10-07T07:59:33.603Z,5.43
2018-10-07T08:02:02.796Z,5.30
2018-10-07T08:04:32.001Z,6.03
2018-10-07T08:07:01.199Z,5.27
2018-10-07T08:09:30.425Z,5.50
2018-10-07T08:11:59.646Z,5.07
2018-10-07T08:14:28.858Z,6.20
2018-10-07T08:16:58.062Z,5.57
2018-10-07T08:19:27.283Z,6.13
2018-10-07T08:22:02.933Z,5.07
2018-10-07T08:24:32.146Z,5.00
2018-10-07T08:27:01.322Z,6.73
2018-10-07T08:29:30.526Z,5.77
2018-10-07T08:31:59.730Z,5.67
2018-10-07T08:34:28.991Z,6.47
2018-10-07T08:36:58.319Z,5.80
2018-10-07T08:39:27.548Z,5.43
2018-10-07T08:41:56.793Z,6.27
2018-10-07T08:44:26.065Z,6.73
2018-10-07T08:46:55.324Z,6.60
2018-10-07T08:49:24.594Z,6.73
2018-10-07T08:51:53.844Z,7.53
2018-10-07T08:54:23.072Z,7.70
2018-10-07T08:56:52.302Z,8.90
2018-10-07T08:59:21.550Z,8.67
2018-10-07T09:01:50.788Z,8.40
2018-10-07T09:04:20.034Z,8.20
2018-10-07T09:06:49.299Z,9.57
2018-10-07T09:09:18.540Z,9.30
2018-10-07T09:11:47.763Z,10.57
2018-10-07T09:14:17.029Z,9.97
2018-10-07T09:16:46.269Z,9.30
2018-10-07T09:19:15.497Z,9.47
2018-10-07T09:21:44.753Z,9.90
2018-10-07T09:24:13.999Z,10.90
2018-10-07T09:26:43.321Z,9.73
2018-10-07T09:29:12.674Z,9.97
2018-10-07T09:31:41.901Z,10.10
2018-10-07T09:34:11.113Z,9.53
2018-10-07T09:36:40.333Z,11.33
2018-10-07T09:39:11.147Z,10.50
2018-10-07T09:41:40.442Z,10.03
2018-10-07T09:44:10.001Z,11.10
2018-10-07T09:46:39.290Z,10.57
2018-10-07T09:49:08.530Z,10.50
2018-10-07T09:51:37.779Z,10.37
2018-10-07T09:54:07.045Z,10.80
2018-10-07T09:56:36.276Z,10.00
2018-10-07T09:59:05.520Z,11.10
2018-10-07T10:01:34.746Z,11.20
2018-10-07T10:04:04.058Z,10.50
2018-10-07T10:06:33.254Z,9.97
2018-10-07T10:09:02.478Z,9.80
2018-10-07T10:11:31.716Z,10.43
2018-10-07T10:14:00.949Z,9.83
2018-10-07T10:16:47.283Z,9.43
2018-10-07T10:19:25.844Z,11.07
2018-10-07T10:22:12.761Z,9.33
2018-10-07T10:25:08.267Z,9.77
2018-10-07T10:27:52.662Z,9.53
2018-10-07T10:33:39.973Z,8.60
2018-10-07T10:36:26.585Z,8.10
2018-10-07T10:39:13.068Z,9.20
2018-10-07T10:41:50.212Z,8.33
2018-10-07T10:44:28.758Z,8.80
2018-10-07T10:47:12.641Z,9.27
2018-10-07T10:50:03.636Z,7.67
2018-10-07T10:52:38.736Z,7.40
2018-10-07T10:55:20.015Z,7.60
2018-10-07T10:57:54.472Z,7.70
2018-10-07T11:00:36.165Z,7.33
2018-10-07T11:03:43.163Z,7.10
2018-10-07T11:07:25.171Z,6.07
2018-10-07T11:10:14.628Z,6.53
2018-10-07T11:12:56.068Z,6.77
2018-10-07T11:16:40.996Z,7.33
2018-10-07T11:19:33.886Z,6.53
2018-10-07T11:24:17.041Z,6.33
2018-10-07T11:27:29.918Z,5.33
2018-10-07T11:30:22.720Z,6.07
2018-10-07T11:33:07.870Z,6.10
2018-10-07T11:35:47.360Z,6.87
2018-10-07T11:38:29.329Z,6.17
2018-10-07T11:41:14.466Z,6.50
2018-10-07T11:43:51.296Z,6.50
2018-10-07T11:48:56.179Z,7.40
2018-10-07T11:52:40.537Z,9.47
2018-10-07T11:55:08.427Z,9.80
2018-10-07T11:57:38.509Z,10.50
2018-10-07T12:00:07.764Z,11.40
2018-10-07T12:02:37.161Z,11.87
2018-10-07T12:05:06.326Z,11.37
2018-10-07T12:07:35.616Z,11.43
2018-10-07T12:10:04.894Z,11.90
2018-10-07T12:12:34.510Z,13.37
2018-10-07T12:15:03.725Z,12.20
2018-10-07T12:17:32.996Z,11.73
2018-10-07T12:20:02.220Z,11.03
2018-10-07T12:22:31.449Z,12.13
2018-10-07T12:25:00.672Z,12.03
2018-10-07T12:27:29.935Z,10.80
2018-10-07T12:29:59.177Z,11.20
2018-10-07T12:32:28.422Z,10.87
2018-10-07T12:34:57.636Z,14.40
2018-10-07T12:37:26.873Z,12.37
2018-10-07T12:39:56.155Z,11.10
2018-10-07T12:42:25.417Z,10.87
2018-10-07T12:44:54.635Z,10.93
2018-10-07T12:47:23.970Z,11.33
2018-10-07T12:49:53.197Z,10.90
2018-10-07T12:52:22.426Z,10.90
2018-10-07T12:54:51.640Z,11.23
2018-10-07T12:57:20.881Z,11.87
2018-10-07T12:59:50.187Z,11.50
2018-10-07T13:02:19.402Z,9.77
2018-10-07T13:04:48.607Z,12.03
2018-10-07T13:07:17.876Z,11.07
2018-10-07T13:09:47.076Z,10.97
2018-10-07T13:12:16.315Z,10.03
2018-10-07T13:14:45.560Z,11.17
2018-10-07T13:17:14.781Z,10.97
2018-10-07T13:19:43.991Z,9.87
2018-10-07T13:22:13.205Z,9.53
2018-10-07T13:24:42.427Z,10.23
2018-10-07T13:27:11.671Z,11.80
2018-10-07T13:29:40.908Z,11.47
2018-10-07T13:32:10.098Z,11.07
2018-10-07T13:34:39.316Z,10.10
2018-10-07T13:37:08.534Z,11.13
2018-10-07T13:39:37.763Z,10.77
2018-10-07T13:42:07.361Z,9.93
2018-10-07T13:44:36.595Z,10.00
2018-10-07T13:47:05.852Z,10.27
2018-10-07T13:49:35.117Z,10.60
2018-10-07T13:52:04.358Z,9.80
2018-10-07T13:54:33.594Z,11.87
2018-10-07T13:57:02.814Z,10.73
2018-10-07T13:59:32.056Z,10.40
2018-10-07T14:02:01.264Z,9.77
2018-10-07T14:04:30.505Z,10.40
2018-10-07T14:06:59.733Z,10.37
2018-10-07T14:09:28.954Z,11.07
2018-10-07T14:11:58.191Z,11.40
2018-10-07T14:14:27.524Z,11.03
2018-10-07T14:16:56.750Z,11.77
2018-10-07T14:19:26.007Z,11.50
2018-10-07T14:21:55.217Z,11.27
2018-10-07T14:24:24.460Z,11.33
2018-10-07T14:26:53.657Z,12.13
2018-10-07T14:29:22.881Z,10.27
2018-10-07T14:31:52.171Z,10.97
2018-10-07T14:34:21.401Z,11.37
2018-10-07T14:36:50.618Z,11.33
2018-10-07T14:39:19.961Z,10.60
2018-10-07T14:41:49.109Z,10.60
2018-10-07T14:44:18.469Z,11.30
2018-10-07T14:46:47.722Z,12.03
2018-10-07T14:49:16.991Z,13.03
2018-10-07T14:51:46.215Z,11.40
2018-10-07T14:54:15.477Z,11.17
2018-10-07T14:56:44.722Z,11.63
2018-10-07T14:59:13.986Z,11.80
2018-10-07T15:01:43.190Z,12.57
2018-10-07T15:04:12.426Z,11.60
2018-10-07T15:06:41.660Z,11.27
2018-10-07T15:09:12.046Z,10.73
2018-10-07T15:11:41.526Z,11.80
2018-10-07T15:14:10.757Z,11.67
2018-10-07T15:16:40.051Z,11.67
2018-10-07T15:19:09.308Z,12.60
2018-10-07T15:21:38.554Z,12.00
2018-10-07T15:24:07.812Z,11.97
2018-10-07T15:26:37.061Z,11.83
2018-10-07T15:29:06.318Z,10.30
2018-10-07T15:31:35.591Z,9.23
2018-10-07T15:34:04.834Z,9.60
2018-10-07T15:36:34.066Z,9.27
2018-10-07T15:39:04.140Z,8.83
2018-10-07T15:41:33.365Z,8.03
2018-10-07T15:44:02.739Z,7.13
2018-10-07T15:46:32.056Z,7.53
2018-10-07T15:49:01.316Z,7.83
2018-10-07T15:51:30.524Z,6.30
2018-10-07T15:53:59.747Z,6.90
2018-10-07T15:56:28.973Z,5.90
2018-10-07T15:58:58.201Z,6.73
2018-10-07T16:01:27.402Z,7.00
2018-10-07T16:03:56.631Z,7.40
2018-10-07T16:06:25.844Z,7.87
2018-10-07T16:08:55.076Z,8.30
2018-10-07T16:11:24.288Z,8.90
2018-10-07T16:13:53.515Z,8.53
2018-10-07T16:16:22.751Z,8.50
2018-10-07T16:18:52.071Z,8.50
2018-10-07T16:21:21.272Z,8.23
2018-10-07T16:23:50.560Z,8.07
2018-10-07T16:26:19.869Z,8.37
2018-10-07T16:28:49.020Z,8.57
2018-10-07T16:31:18.250Z,7.53
2018-10-07T16:33:47.452Z,7.77
2018-10-07T16:36:16.704Z,7.87
2018-10-07T16:38:45.905Z,7.73
2018-10-07T16:41:15.279Z,7.80
2018-10-07T16:43:44.492Z,7.80
2018-10-07T16:46:13.722Z,7.57
2018-10-07T16:48:42.962Z,7.90
2018-10-07T16:51:12.178Z,7.37
2018-10-07T16:53:41.380Z,7.80
2018-10-07T16:56:10.615Z,6.93
2018-10-07T16:58:39.834Z,7.23
2018-10-07T17:01:09.053Z,7.87
2018-10-07T17:03:38.282Z,7.10
2018-10-07T17:06:07.502Z,7.87
2018-10-07T17:08:36.712Z,8.37
2018-10-07T17:11:05.926Z,7.37
2018-10-07T17:13:35.147Z,6.97
2018-10-07T17:16:04.368Z,7.13
2018-10-07T17:18:33.600Z,7.60
2018-10-07T17:21:02.908Z,7.23
2018-10-07T17:23:32.077Z,7.20
2018-10-07T17:26:01.311Z,7.13
2018-10-07T17:28:30.551Z,7.07
2018-10-07T17:30:59.785Z,6.77
2018-10-07T17:33:29.020Z,7.20
2018-10-07T17:35:58.237Z,7.30
2018-10-07T17:38:27.438Z,6.47
2018-10-07T17:40:56.656Z,6.27
2018-10-07T17:43:25.885Z,5.87
2018-10-07T17:45:55.174Z,6.00
2018-10-07T17:48:24.560Z,6.40
2018-10-07T17:50:53.657Z,5.53
2018-10-07T17:53:22.899Z,13.70
2018-10-07T17:55:52.149Z,9.57
2018-10-07T17:58:21.373Z,9.20
2018-10-07T18:00:50.613Z,5.33
2018-10-07T18:03:20.113Z,5.93
2018-10-07T18:05:49.339Z,5.07
2018-10-07T18:08:18.573Z,4.43
2018-10-07T18:10:47.822Z,5.00
2018-10-07T18:13:17.044Z,5.70
2018-10-07T18:15:46.271Z,5.33
2018-10-07T18:18:15.487Z,4.77
2018-10-07T18:20:44.752Z,4.90
2018-10-07T18:23:13.954Z,4.43
2018-10-07T18:25:43.188Z,4.13
2018-10-07T18:28:12.429Z,4.80
2018-10-07T18:30:41.662Z,4.77
2018-10-07T18:33:10.898Z,3.87
2018-10-07T18:35:40.143Z,3.73
2018-10-07T18:38:09.376Z,4.03
2018-10-07T18:40:38.689Z,4.10
2018-10-07T18:43:07.933Z,4.00
2018-10-07T18:45:37.183Z,4.20
2018-10-07T18:48:06.437Z,3.97
2018-10-07T18:50:35.667Z,4.13
2018-10-07T18:53:04.900Z,3.87
2018-10-07T18:55:34.130Z,4.20
2018-10-07T18:58:03.371Z,4.50
2018-10-07T19:00:32.607Z,4.37
2018-10-07T19:03:02.000Z,4.67
2018-10-07T19:05:31.080Z,4.70
2018-10-07T19:08:00.305Z,4.40
2018-10-07T19:10:29.537Z,4.77
2018-10-07T19:12:58.772Z,3.90
2018-10-07T19:15:28.003Z,4.13
2018-10-07T19:17:57.237Z,4.00
2018-10-07T19:20:26.469Z,4.27
2018-10-07T19:22:55.958Z,3.77
2018-10-07T19:25:25.184Z,3.60
2018-10-07T19:27:54.460Z,4.23
2018-10-07T19:30:23.683Z,4.30
2018-10-07T19:32:52.937Z,4.10
2018-10-07T19:35:22.146Z,3.97
2018-10-07T19:37:51.497Z,4.43
2018-10-07T19:40:20.726Z,4.50
2018-10-07T19:42:49.996Z,4.30
2018-10-07T19:45:19.242Z,3.83
2018-10-07T19:47:48.472Z,4.30
2018-10-07T19:50:17.738Z,4.37
2018-10-07T19:52:47.037Z,3.83
2018-10-07T19:55:16.242Z,4.10
2018-10-07T19:57:45.468Z,4.50
2018-10-07T20:00:14.737Z,4.63
2018-10-07T20:02:43.983Z,4.03
2018-10-07T20:05:13.497Z,3.90
2018-10-07T20:07:42.734Z,4.63
2018-10-07T20:10:11.964Z,3.93
2018-10-07T20:12:41.177Z,4.20
2018-10-07T20:15:10.391Z,3.97
2018-10-07T20:17:39.601Z,4.30
2018-10-07T20:20:08.806Z,4.70
2018-10-07T20:22:38.037Z,4.77
2018-10-07T20:25:07.239Z,4.33
2018-10-07T20:27:36.574Z,4.20
2018-10-07T20:30:05.984Z,5.20
2018-10-07T20:32:35.201Z,5.50
2018-10-07T20:35:04.407Z,5.37
2018-10-07T20:37:33.623Z,5.10
2018-10-07T20:40:02.817Z,5.13
2018-10-07T20:42:32.042Z,4.97
2018-10-07T20:45:01.257Z,4.87
2018-10-07T20:47:30.506Z,5.07
2018-10-07T20:49:59.697Z,3.70
2018-10-07T20:52:28.942Z,4.10
2018-10-07T20:54:58.132Z,3.80
2018-10-07T20:57:27.349Z,4.97
2018-10-07T20:59:56.587Z,4.13
2018-10-07T21:02:25.841Z,4.40
2018-10-07T21:04:55.017Z,4.30
2018-10-07T21:07:24.278Z,4.70
2018-10-07T21:09:53.481Z,4.63
2018-10-07T21:12:22.702Z,4.73
2018-10-07T21:14:51.924Z,4.70
2018-10-07T21:17:21.345Z,5.07
2018-10-07T21:19:50.598Z,4.80
2018-10-07T21:22:19.832Z,4.17
2018-10-07T21:24:49.057Z,4.30
2018-10-07T21:27:18.303Z,4.67
2018-10-07T21:29:47.508Z,4.17
2018-10-07T21:32:16.747Z,4.63
2018-10-07T21:34:45.964Z,4.13
2018-10-07T21:37:15.177Z,4.40
2018-10-07T21:39:44.374Z,4.50
2018-10-07T21:42:13.631Z,5.07
2018-10-07T21:44:42.861Z,4.70
2018-10-07T21:47:12.093Z,4.43
2018-10-07T21:49:41.346Z,4.17
2018-10-07T21:52:10.591Z,4.33
2018-10-07T21:54:39.816Z,4.53
2018-10-07T21:57:09.061Z,4.20
2018-10-07T21:59:38.271Z,4.53
2018-10-07T22:02:07.541Z,4.03
2018-10-07T22:04:36.750Z,3.93
2018-10-07T22:07:06.003Z,4.03
2018-10-07T22:09:35.245Z,4.10
2018-10-07T22:12:04.490Z,4.20
2018-10-07T22:14:33.720Z,4.40
2018-10-07T22:17:02.970Z,4.00
2018-10-07T22:19:32.209Z,4.13
2018-10-07T22:22:01.452Z,3.83
2018-10-07T22:24:30.690Z,4.50
2018-10-07T22:26:59.931Z,5.00
2018-10-07T22:29:29.149Z,4.30
2018-10-07T22:31:58.659Z,4.87
2018-10-07T22:34:27.899Z,5.33
2018-10-07T22:36:57.127Z,6.17
2018-10-07T22:39:26.363Z,6.60
2018-10-07T22:41:55.609Z,5.30
2018-10-07T22:44:24.860Z,5.77
2018-10-07T22:46:54.103Z,5.93
2018-10-07T22:49:23.444Z,6.00
2018-10-07T22:51:52.687Z,6.60
2018-10-07T22:54:21.929Z,7.13
2018-10-07T22:56:51.346Z,7.60
2018-10-07T22:59:20.579Z,7.27
2018-10-07T23:01:49.953Z,6.83
2018-10-07T23:04:19.202Z,5.40
2018-10-07T23:06:48.484Z,5.97
2018-10-07T23:09:17.714Z,7.13
2018-10-07T23:11:46.950Z,5.13
2018-10-07T23:14:16.202Z,5.10
2018-10-07T23:16:45.434Z,4.83
2018-10-07T23:19:14.693Z,5.07
2018-10-07T23:21:43.921Z,5.10
2018-10-07T23:24:13.179Z,5.67
2018-10-07T23:26:42.407Z,5.03
2018-10-07T23:29:11.638Z,5.50
2018-10-07T23:31:40.875Z,5.10
2018-10-07T23:34:10.173Z,5.87
2018-10-07T23:36:39.400Z,6.43
2018-10-07T23:39:10.897Z,6.10
2018-10-07T23:41:40.191Z,5.80
2018-10-07T23:44:09.468Z,5.87
2018-10-07T23:46:38.666Z,5.77
2018-10-07T23:49:11.503Z,5.03
2018-10-07T23:51:40.774Z,5.73
2018-10-07T23:54:09.941Z,5.57
2018-10-07T23:56:39.153Z,5.20
2018-10-07T23:59:08.369Z,5.27
